Ketchikan, AK

10:19 PM AKDT on May 26, 2017 (GMT -0800)
Ketchikan International | | Change Station

Elev 85 ft 55.36 °N, 131.71 °W | Updated 26 minutes ago

Clear
Clear
56 °F
Feels Like 56 °F
N
7
Wind Variable Wind from NNW

Today
High -- | Low -- °F
--% Chance of Precip.
Yesterday
High -- | Low -- °F
Precip. -- in
Pressure 30.14 in
Visibility 10.0 miles
Clouds Clear
Dew Point 44 °F
Humidity 64%
Rainfall 0.00 in
Snow Depth Not available.
4:19 AM 9:09 PM
Waxing Crescent, 3% visible
METAR PAKT 270553Z AUTO 33006KT 10SM CLR 13/07 A3014 RMK AO2 SLP207 T01330067 10189 20133 53012 TSNO
Pressure 30.14 in
Visibility 10.0 miles
Clouds Clear
Dew Point 44 °F
Humidity 64%
Rainfall 0.00 in
Snow Depth Not available.
4:19 AM 9:09 PM
Waxing Crescent, 3% visible
METAR PAKT 270553Z AUTO 33006KT 10SM CLR 13/07 A3014 RMK AO2 SLP207 T01330067 10189 20133 53012 TSNO

Get Severe Weather Alerts

Thanks for signing up!

Be on the lookout for a verification email in your inbox.

You'll start receiving the daily forecast at 6 AM.

×

10-Day Weather Forecast

Almanac

Astronomy

May. 26, 2017 Rise Set
Actual Time
Civil Twilight
Nautical Twilight
Astronomical Twilight
Moon
Length of Visible Light
Length of Day
Tomorrow will be .
, % of the Moon is Illuminated

Today's Extremes

State Highs State Lows

Community

WunderPhotos

Category 6

Welcome to Category 6. This is the collective home for Weather Underground's featured writeups by Dr. Jeff Masters (right), Bob Henson (left), Chris Burt, and other regular contributors.

Nearby

Air Quality

  Air Quality AQ Index Pollutant
Not available.

Snow Depth

Station Depth Elevation

Earthquake Activity

City Distance Mag. Time & Date
Minimum magnitude displayed is 2.5.

Coastal Water Temperatures

Place Temperature

Stations

Nearby Weather Stations

Station Location Temp. Windchill Dew Point Humidity Wind Precip. Elev Updated Type
                   

Watches & Warnings

There are currently no watches in effect.